Time;durP1;ratioP1;P1;durP2;ratioP2;P2;SDS_P1;SDS_P2;PMS_P1;PMS_P2;Temp;Humidity;BMP_temperature;BMP_pressure;BME280_temperature;BME280_humidity;BME280_pressure;Samples;Min_cycle;Max_cycle;Signal;HPM_P1;HPM_P2
2022/10/20 00:01:54;;;;;;;1999.90;999.90;;;8.50;99.90;;;;;;5048856;28;20482;-67
2022/10/20 00:04:21;;;;;;;1999.90;999.90;;;8.50;99.90;;;;;;5047647;28;20463;-67
2022/10/20 00:06:48;;;;;;;1999.90;999.90;;;8.50;99.90;;;;;;5047047;28;20465;-68
2022/10/20 00:09:14;;;;;;;1999.90;999.90;;;8.40;99.90;;;;;;5045740;28;20455;-68
2022/10/20 00:11:42;;;;;;;1999.90;999.90;;;8.40;99.90;;;;;;5047784;28;20497;-69
2022/10/20 00:14:10;;;;;;;1999.90;999.90;;;8.40;99.90;;;;;;5047234;28;20483;-67
2022/10/20 00:16:39;;;;;;;1999.90;999.90;;;8.50;99.90;;;;;;5046194;28;20460;-68
2022/10/20 00:19:05;;;;;;;1999.90;999.90;;;8.40;99.90;;;;;;5047734;28;20581;-68
2022/10/20 00:21:32;;;;;;;1999.90;999.90;;;8.50;99.90;;;;;;5047506;28;20493;-68
2022/10/20 00:24:01;;;;;;;1999.90;999.90;;;8.50;99.90;;;;;;5047375;28;20463;-68
2022/10/20 00:26:28;;;;;;;1999.90;999.90;;;8.40;99.90;;;;;;5046421;28;20950;-66
2022/10/20 00:28:56;;;;;;;1999.90;999.90;;;8.40;99.90;;;;;;5046137;28;20462;-68
2022/10/20 00:31:25;;;;;;;1999.90;999.90;;;8.40;99.90;;;;;;5046642;28;21056;-69
2022/10/20 00:33:52;;;;;;;1999.90;999.90;;;8.40;99.90;;;;;;5046162;28;20482;-67
2022/10/20 00:36:21;;;;;;;1999.90;999.90;;;8.40;99.90;;;;;;5047201;28;20466;-68
2022/10/20 00:38:48;;;;;;;1999.90;999.90;;;8.40;99.90;;;;;;5046455;28;20458;-68
2022/10/20 00:41:16;;;;;;;1999.90;999.90;;;8.40;99.90;;;;;;5045652;28;20496;-68
2022/10/20 00:43:46;;;;;;;1999.90;999.90;;;8.40;99.90;;;;;;5047430;28;20457;-68
2022/10/20 00:46:15;;;;;;;1999.90;999.90;;;8.30;99.90;;;;;;5049286;28;20442;-67
2022/10/20 00:48:47;;;;;;;1999.90;999.90;;;8.30;99.90;;;;;;5045890;28;20458;-68
2022/10/20 00:51:16;;;;;;;1999.90;999.90;;;8.20;99.90;;;;;;5047931;28;20489;-68
2022/10/20 00:53:44;;;;;;;1999.90;999.90;;;8.20;99.90;;;;;;5048667;28;20486;-68
2022/10/20 00:56:11;;;;;;;1999.90;999.90;;;8.10;99.90;;;;;;5047096;28;20500;-68
2022/10/20 00:58:39;;;;;;;1999.90;999.90;;;8.10;99.90;;;;;;5044790;28;20462;-67
2022/10/20 01:01:06;;;;;;;1999.90;999.90;;;8.10;99.90;;;;;;5046257;28;20483;-68
2022/10/20 01:03:39;;;;;;;1999.90;999.90;;;8.10;99.90;;;;;;5047009;28;20467;-68
2022/10/20 01:06:07;;;;;;;1999.90;999.90;;;8.00;99.90;;;;;;5046018;28;20458;-69
2022/10/20 01:08:34;;;;;;;1999.90;999.90;;;8.00;99.90;;;;;;5045049;28;20467;-68
2022/10/20 01:11:14;;;;;;;1999.90;999.90;;;8.10;99.90;;;;;;5046313;28;20482;-68
2022/10/20 01:13:50;;;;;;;1999.90;999.90;;;8.30;99.90;;;;;;5043180;28;20466;-68
2022/10/20 01:16:26;;;;;;;1999.90;999.90;;;8.00;99.90;;;;;;5047337;28;20458;-68
2022/10/20 01:19:02;;;;;;;1999.90;999.90;;;7.90;99.90;;;;;;5048091;28;20454;-68
2022/10/20 01:21:45;;;;;;;1999.90;999.90;;;7.90;99.90;;;;;;5046861;28;20853;-68
2022/10/20 01:24:32;;;;;;;1999.90;999.90;;;7.80;99.90;;;;;;5046539;28;20459;-68
2022/10/20 01:27:25;;;;;;;1999.90;999.90;;;7.80;99.90;;;;;;5047068;28;20541;-69
2022/10/20 01:30:00;;;;;;;1999.90;999.90;;;7.70;99.90;;;;;;5043550;28;20450;-67
2022/10/20 01:32:36;;;;;;;1999.90;999.90;;;7.70;99.90;;;;;;5046513;28;20485;-66
2022/10/20 01:35:09;;;;;;;1999.90;999.90;;;7.60;99.90;;;;;;5046333;28;20482;-69
2022/10/20 01:37:41;;;;;;;1999.90;999.90;;;7.70;99.90;;;;;;5042272;28;20446;-68
2022/10/20 01:40:15;;;;;;;1999.90;999.90;;;8.10;99.90;;;;;;5044246;28;20466;-68
2022/10/20 01:42:45;;;;;;;1999.90;999.90;;;8.10;99.90;;;;;;5041550;28;20542;-68
2022/10/20 01:45:14;;;;;;;1999.90;999.90;;;8.20;99.90;;;;;;5049773;28;20977;-68
2022/10/20 01:47:43;;;;;;;1999.90;999.90;;;8.30;99.90;;;;;;5049269;28;20826;-68
2022/10/20 01:50:12;;;;;;;1999.90;999.90;;;8.50;99.90;;;;;;5050918;28;20470;-68
2022/10/20 01:52:39;;;;;;;1999.90;999.90;;;8.50;99.90;;;;;;5048711;28;20852;-68
2022/10/20 01:55:12;;;;;;;1999.90;999.90;;;8.50;99.90;;;;;;5051223;28;20482;-67
2022/10/20 01:57:49;;;;;;;1999.90;999.90;;;8.60;99.90;;;;;;5052295;28;20466;-68
2022/10/20 02:00:17;;;;;;;1999.90;999.90;;;8.50;99.90;;;;;;5049030;28;20470;-68
2022/10/20 02:03:15;;;;;;;1999.90;999.90;;;8.50;99.90;;;;;;5051246;28;20473;-67
2022/10/20 02:05:57;;;;;;;1999.90;999.90;;;8.50;99.90;;;;;;5046991;28;20450;-66
2022/10/20 02:08:31;;;;;;;1999.90;999.90;;;8.50;99.90;;;;;;5049343;28;20993;-68
2022/10/20 02:11:01;;;;;;;1999.90;999.90;;;8.60;99.90;;;;;;5050137;28;20480;-68
2022/10/20 02:13:31;;;;;;;1999.90;999.90;;;8.60;99.90;;;;;;5050097;28;20454;-68
2022/10/20 02:16:02;;;;;;;1999.90;999.90;;;8.60;99.90;;;;;;5048198;28;20857;-68
2022/10/20 02:18:33;;;;;;;1999.90;999.90;;;8.60;99.90;;;;;;5051524;28;20458;-69
2022/10/20 02:21:03;;;;;;;1999.90;999.90;;;8.50;99.90;;;;;;5048613;28;21026;-67
2022/10/20 02:23:33;;;;;;;1999.90;999.90;;;8.40;99.90;;;;;;5048926;28;20458;-68
2022/10/20 02:26:01;;;;;;;1999.90;999.90;;;8.50;99.90;;;;;;5047534;28;20461;-69
2022/10/20 02:28:30;;;;;;;1999.90;999.90;;;8.50;99.90;;;;;;5050278;28;20462;-75
2022/10/20 02:30:57;;;;;;;1999.90;999.90;;;8.50;99.90;;;;;;5047282;28;21054;-67
2022/10/20 02:33:25;;;;;;;1999.90;999.90;;;8.40;99.90;;;;;;5044775;28;20465;-67
2022/10/20 02:36:00;;;;;;;1999.90;999.90;;;8.40;99.90;;;;;;5047883;28;20898;-73
2022/10/20 02:38:26;;;;;;;1999.90;999.90;;;8.40;99.90;;;;;;5049862;28;20453;-68
2022/10/20 02:40:53;;;;;;;1999.90;999.90;;;8.50;99.90;;;;;;5050233;28;20990;-68
2022/10/20 02:43:20;;;;;;;1999.90;999.90;;;8.40;99.90;;;;;;5049034;28;20473;-69
2022/10/20 02:45:48;;;;;;;1999.90;999.90;;;8.30;99.90;;;;;;5049226;28;20456;-69
2022/10/20 02:48:15;;;;;;;1999.90;999.90;;;8.30;99.90;;;;;;5050223;28;20467;-68
2022/10/20 02:50:41;;;;;;;1999.90;999.90;;;8.20;99.90;;;;;;5050873;28;20478;-69
2022/10/20 02:53:08;;;;;;;1999.90;999.90;;;8.50;99.90;;;;;;5049509;28;20458;-69
2022/10/20 02:55:35;;;;;;;1999.90;999.90;;;8.40;99.90;;;;;;5048225;28;20478;-68
2022/10/20 02:58:02;;;;;;;1999.90;999.90;;;8.20;99.90;;;;;;5048304;28;20457;-69
2022/10/20 03:00:30;;;;;;;1999.90;999.90;;;8.10;99.90;;;;;;5049475;28;20481;-69
2022/10/20 03:02:58;;;;;;;1999.90;999.90;;;8.10;99.90;;;;;;5048419;28;20519;-67
2022/10/20 03:05:25;;;;;;;1999.90;999.90;;;8.20;99.90;;;;;;5049413;28;20458;-68
2022/10/20 03:07:52;;;;;;;1999.90;999.90;;;8.10;99.90;;;;;;5048346;28;20454;-69
2022/10/20 03:10:19;;;;;;;1999.90;999.90;;;8.10;99.90;;;;;;5049219;28;20463;-68
2022/10/20 03:12:46;;;;;;;1999.90;999.90;;;8.10;99.90;;;;;;5048354;28;20458;-68
2022/10/20 03:15:13;;;;;;;1999.90;999.90;;;8.10;99.90;;;;;;5048039;28;20475;-69
2022/10/20 03:17:40;;;;;;;1999.90;999.90;;;8.30;99.90;;;;;;5047505;28;20454;-69
2022/10/20 03:20:09;;;;;;;1999.90;999.90;;;8.00;99.90;;;;;;5047982;28;20466;-69
2022/10/20 03:22:36;;;;;;;1999.90;999.90;;;8.00;99.90;;;;;;5048396;28;20481;-68
2022/10/20 03:25:02;;;;;;;1999.90;999.90;;;8.00;99.90;;;;;;5047915;28;20462;-69
2022/10/20 03:27:29;;;;;;;1999.90;999.90;;;8.00;99.90;;;;;;5049156;28;20469;-68
2022/10/20 03:29:56;;;;;;;1999.90;999.90;;;7.90;99.90;;;;;;5048485;28;20481;-68
2022/10/20 03:32:23;;;;;;;1999.90;999.90;;;7.90;99.90;;;;;;5047713;28;20474;-68
2022/10/20 03:34:49;;;;;;;1999.90;999.90;;;7.90;99.90;;;;;;5049588;28;20482;-69
2022/10/20 03:37:17;;;;;;;1999.90;999.90;;;7.80;99.90;;;;;;5048083;28;20466;-68
2022/10/20 03:39:44;;;;;;;1999.90;999.90;;;7.80;99.90;;;;;;5048841;28;20470;-69
2022/10/20 03:42:11;;;;;;;1999.90;999.90;;;7.80;99.90;;;;;;5047347;28;20935;-68
2022/10/20 03:44:38;;;;;;;1999.90;999.90;;;7.70;99.90;;;;;;5047941;28;20457;-68
2022/10/20 03:47:05;;;;;;;1999.90;999.90;;;7.80;99.90;;;;;;5047289;28;20504;-68
2022/10/20 03:49:32;;;;;;;1999.90;999.90;;;7.80;99.90;;;;;;5050939;28;20462;-69
2022/10/20 03:51:59;;;;;;;1999.90;999.90;;;7.80;99.90;;;;;;5048460;28;20489;-67
2022/10/20 03:54:27;;;;;;;1999.90;999.90;;;7.70;99.90;;;;;;5047695;28;20469;-68
2022/10/20 03:56:54;;;;;;;1999.90;999.90;;;7.70;99.90;;;;;;5029989;28;20543;-67
2022/10/20 03:59:21;;;;;;;1999.90;999.90;;;7.70;99.90;;;;;;5048351;28;20473;-68
2022/10/20 04:01:48;;;;;;;1999.90;999.90;;;7.60;99.90;;;;;;5049114;28;20474;-69
2022/10/20 04:04:15;;;;;;;1999.90;999.90;;;7.60;99.90;;;;;;5049669;28;20458;-68
2022/10/20 04:06:42;;;;;;;1999.90;999.90;;;7.60;99.90;;;;;;5049626;28;20465;-68
2022/10/20 04:09:09;;;;;;;1999.90;999.90;;;7.60;99.90;;;;;;5049349;28;20454;-69
2022/10/20 04:11:37;;;;;;;1999.90;999.90;;;7.60;99.90;;;;;;5046057;28;20485;-69
2022/10/20 04:14:03;;;;;;;1999.90;999.90;;;7.60;99.90;;;;;;5050165;28;20468;-69
2022/10/20 04:16:30;;;;;;;1999.90;999.90;;;7.60;99.90;;;;;;5049263;28;20489;-68
2022/10/20 04:18:57;;;;;;;1999.90;999.90;;;7.50;99.90;;;;;;5050190;28;20863;-70
2022/10/20 04:21:25;;;;;;;1999.90;999.90;;;7.50;99.90;;;;;;5049508;28;20478;-66
2022/10/20 04:23:52;;;;;;;1999.90;999.90;;;7.40;99.90;;;;;;5050691;28;20458;-69
2022/10/20 04:26:19;;;;;;;1999.90;999.90;;;7.60;99.90;;;;;;5049109;28;20458;-71
2022/10/20 04:28:47;;;;;;;1999.90;999.90;;;7.30;99.90;;;;;;5050280;28;20454;-69
2022/10/20 04:31:13;;;;;;;1999.90;999.90;;;7.20;99.90;;;;;;5049108;28;20485;-67
2022/10/20 04:33:40;;;;;;;1999.90;999.90;;;7.10;99.90;;;;;;5048492;28;20465;-71
2022/10/20 04:36:10;;;;;;;1999.90;999.90;;;6.90;99.90;;;;;;5048372;28;20485;-70
2022/10/20 04:38:37;;;;;;;1999.90;999.90;;;6.70;99.90;;;;;;5049141;28;20462;-71
2022/10/20 04:41:04;;;;;;;1999.90;999.90;;;6.70;99.90;;;;;;5068969;22;20579;-67
2022/10/20 04:43:32;;;;;;;1999.90;999.90;;;6.60;99.90;;;;;;5026538;28;20457;-67
2022/10/20 04:46:04;;;;;;;1999.90;999.90;;;6.60;99.90;;;;;;5026892;28;20482;-66
2022/10/20 04:48:31;;;;;;;1999.90;999.90;;;6.60;99.90;;;;;;5028963;28;20958;-67
2022/10/20 04:51:02;;;;;;;1999.90;999.90;;;6.50;99.90;;;;;;5025755;28;20495;-67
2022/10/20 04:53:29;;;;;;;1999.90;999.90;;;6.50;99.90;;;;;;5031808;28;20462;-67
2022/10/20 04:55:56;;;;;;;1999.90;999.90;;;6.40;99.90;;;;;;5034347;28;20869;-67
2022/10/20 04:58:23;;;;;;;1999.90;999.90;;;6.30;99.90;;;;;;5031302;28;20443;-69
2022/10/20 05:00:50;;;;;;;1999.90;999.90;;;6.30;99.90;;;;;;5030752;28;20839;-69
2022/10/20 05:03:19;;;;;;;1999.90;999.90;;;6.30;99.90;;;;;;5027863;28;20493;-70
2022/10/20 05:05:46;;;;;;;1999.90;999.90;;;6.30;99.90;;;;;;5029145;28;20463;-69
2022/10/20 05:08:13;;;;;;;1999.90;999.90;;;6.30;99.90;;;;;;5027473;28;20471;-69
2022/10/20 05:10:40;;;;;;;1999.90;999.90;;;6.30;99.90;;;;;;5029124;28;20849;-67
2022/10/20 05:13:07;;;;;;;1999.90;999.90;;;6.30;99.90;;;;;;5028241;28;20474;-69
2022/10/20 05:15:33;;;;;;;1999.90;999.90;;;6.40;99.90;;;;;;5029664;28;20478;-69
2022/10/20 05:18:00;;;;;;;1999.90;999.90;;;6.40;99.90;;;;;;5029351;28;20471;-69
2022/10/20 05:20:28;;;;;;;1999.90;999.90;;;6.40;99.90;;;;;;5036495;28;20459;-69
2022/10/20 05:22:55;;;;;;;1999.90;999.90;;;6.40;99.90;;;;;;5032055;28;21016;-69
2022/10/20 05:25:22;;;;;;;1999.90;999.90;;;6.40;99.90;;;;;;5032177;28;21473;-69
2022/10/20 05:27:49;;;;;;;1999.90;999.90;;;6.30;99.90;;;;;;5031967;28;20466;-69
2022/10/20 05:30:15;;;;;;;1999.90;999.90;;;6.30;99.90;;;;;;5033516;28;20462;-69
2022/10/20 05:32:42;;;;;;;1999.90;999.90;;;6.30;99.90;;;;;;5031020;28;20486;-69
2022/10/20 05:35:09;;;;;;;1999.90;999.90;;;6.30;99.90;;;;;;5030983;28;20852;-67
2022/10/20 05:37:37;;;;;;;1999.90;999.90;;;6.30;99.90;;;;;;5032188;28;20967;-66
2022/10/20 05:40:05;;;;;;;1999.90;999.90;;;6.30;99.90;;;;;;5032242;28;20468;-67
2022/10/20 05:42:32;;;;;;;1999.90;999.90;;;6.40;99.90;;;;;;5031628;28;20578;-66
2022/10/20 05:44:59;;;;;;;1999.90;999.90;;;6.30;99.90;;;;;;5031595;28;20467;-69
2022/10/20 05:47:25;;;;;;;1999.90;999.90;;;6.20;99.90;;;;;;5036456;28;20454;-69
2022/10/20 05:49:52;;;;;;;1999.90;999.90;;;6.10;99.90;;;;;;5036798;28;20965;-69
2022/10/20 05:52:19;;;;;;;1999.90;999.90;;;6.10;99.90;;;;;;5032737;28;20494;-70
2022/10/20 05:54:47;;;;;;;1999.90;999.90;;;6.00;99.90;;;;;;5033171;28;20459;-69
2022/10/20 05:57:14;;;;;;;1999.90;999.90;;;6.00;99.90;;;;;;5031214;28;20489;-69
2022/10/20 05:59:40;;;;;;;1999.90;999.90;;;6.00;99.90;;;;;;5031474;28;20466;-69
2022/10/20 06:02:09;;;;;;;1999.90;999.90;;;6.00;99.90;;;;;;5032215;28;20861;-69
2022/10/20 06:04:36;;;;;;;1999.90;999.90;;;6.00;99.90;;;;;;5033442;28;20992;-69
2022/10/20 06:07:04;;;;;;;1999.90;999.90;;;6.00;99.90;;;;;;5034084;28;20451;-68
2022/10/20 06:09:31;;;;;;;1999.90;999.90;;;6.10;99.90;;;;;;5030017;28;21176;-68
2022/10/20 06:11:59;;;;;;;1999.90;999.90;;;6.20;99.90;;;;;;5031486;28;20482;-69
2022/10/20 06:14:26;;;;;;;1999.90;999.90;;;6.20;99.90;;;;;;5031026;28;20467;-69
2022/10/20 06:16:54;;;;;;;1999.90;999.90;;;6.30;99.90;;;;;;5027769;28;20490;-68
2022/10/20 06:19:21;;;;;;;1999.90;999.90;;;6.30;99.90;;;;;;5033371;28;20466;-69
2022/10/20 06:21:48;;;;;;;1999.90;999.90;;;6.40;99.90;;;;;;5029124;28;20483;-68
2022/10/20 06:24:15;;;;;;;1999.90;999.90;;;6.40;99.90;;;;;;5031012;28;20455;-69
2022/10/20 06:26:43;;;;;;;1999.90;999.90;;;6.50;99.90;;;;;;5031182;28;20822;-70
2022/10/20 06:29:13;;;;;;;1999.90;999.90;;;6.50;99.90;;;;;;5030742;28;20955;-69
2022/10/20 06:31:42;;;;;;;1999.90;999.90;;;6.60;99.90;;;;;;5031859;28;20853;-69
2022/10/20 06:34:11;;;;;;;1999.90;999.90;;;6.60;99.90;;;;;;5028464;28;20456;-67
2022/10/20 06:36:39;;;;;;;1999.90;999.90;;;6.70;99.90;;;;;;5032202;28;20565;-67
2022/10/20 06:39:08;;;;;;;1999.90;999.90;;;6.70;99.90;;;;;;5046030;28;20817;-67
2022/10/20 06:41:35;;;;;;;1999.90;999.90;;;6.70;99.90;;;;;;5033818;28;20491;-67
2022/10/20 06:44:02;;;;;;;1999.90;999.90;;;6.80;99.90;;;;;;5034982;28;20468;-66
2022/10/20 06:46:34;;;;;;;1999.90;999.90;;;6.80;99.90;;;;;;5027735;28;20463;-63
2022/10/20 06:49:02;;;;;;;1999.90;999.90;;;6.70;99.90;;;;;;5029412;28;20470;-67
2022/10/20 06:51:29;;;;;;;1999.90;999.90;;;6.80;99.90;;;;;;5033449;28;20515;-67
2022/10/20 06:53:56;;;;;;;1999.90;999.90;;;6.80;99.90;;;;;;5030774;28;20467;-67
2022/10/20 06:56:24;;;;;;;1999.90;999.90;;;6.80;99.90;;;;;;5031042;28;20486;-66
2022/10/20 06:58:53;;;;;;;1999.90;999.90;;;6.90;99.90;;;;;;5033131;28;20850;-66
2022/10/20 07:01:22;;;;;;;1999.90;999.90;;;6.70;99.90;;;;;;5034674;28;20483;-67
2022/10/20 07:03:52;;;;;;;1999.90;999.90;;;6.70;99.90;;;;;;5031424;28;20451;-66
2022/10/20 07:06:21;;;;;;;1999.90;999.90;;;6.80;99.90;;;;;;5031648;28;20834;-66
2022/10/20 07:08:49;;;;;;;1999.90;999.90;;;6.70;99.90;;;;;;5028621;28;20447;-67
2022/10/20 07:11:18;;;;;;;1999.90;999.90;;;6.80;99.90;;;;;;5027698;28;20495;-67
2022/10/20 07:13:46;;;;;;;1999.90;999.90;;;6.80;99.90;;;;;;5027248;28;20475;-67
2022/10/20 07:16:15;;;;;;;1999.90;999.90;;;6.90;99.90;;;;;;5028552;28;20483;-67
2022/10/20 07:18:42;;;;;;;1999.90;999.90;;;6.90;99.90;;;;;;5026514;28;20471;-67
2022/10/20 07:21:13;;;;;;;1999.90;999.90;;;7.00;99.90;;;;;;5030898;28;20490;-68
2022/10/20 07:23:40;;;;;;;1999.90;999.90;;;7.00;99.90;;;;;;5035716;28;20458;-66
2022/10/20 07:26:10;;;;;;;1999.90;999.90;;;6.90;99.90;;;;;;5029701;28;20455;-66
2022/10/20 07:28:39;;;;;;;1999.90;999.90;;;6.90;99.90;;;;;;5029216;28;20471;-66
2022/10/20 07:31:08;;;;;;;1999.90;999.90;;;7.00;99.90;;;;;;5032403;28;20487;-66
2022/10/20 07:33:35;;;;;;;1999.90;999.90;;;7.10;99.90;;;;;;5039918;28;20450;-66
2022/10/20 07:36:02;;;;;;;1999.90;999.90;;;7.30;99.90;;;;;;5032872;28;20479;-67
2022/10/20 07:38:30;;;;;;;1999.90;999.90;;;7.50;99.90;;;;;;5031561;28;20989;-65
2022/10/20 07:41:01;;;;;;;1999.90;999.90;;;7.70;99.90;;;;;;5031979;28;20936;-66
2022/10/20 07:43:28;;;;;;;1999.90;999.90;;;7.90;99.90;;;;;;5032333;28;20503;-66
2022/10/20 07:45:55;;;;;;;1999.90;999.90;;;8.00;99.90;;;;;;5032455;28;20802;-66
2022/10/20 07:48:22;;;;;;;1999.90;999.90;;;8.20;99.90;;;;;;5031825;28;20470;-65
2022/10/20 07:50:48;;;;;;;1999.90;999.90;;;8.20;99.90;;;;;;5031324;28;20459;-66
2022/10/20 07:53:15;;;;;;;1999.90;999.90;;;8.50;99.90;;;;;;5031797;28;20455;-67
2022/10/20 07:55:44;;;;;;;1999.90;999.90;;;8.40;99.90;;;;;;5031700;28;20455;-66
2022/10/20 07:58:11;;;;;;;1999.90;999.90;;;8.40;99.90;;;;;;5032652;28;20455;-66
2022/10/20 08:00:38;;;;;;;1999.90;999.90;;;8.50;99.90;;;;;;5032485;28;20935;-66
2022/10/20 08:03:05;;;;;;;1999.90;999.90;;;8.50;99.90;;;;;;5032668;28;20450;-66
2022/10/20 08:05:31;;;;;;;1999.90;999.90;;;8.60;99.90;;;;;;5030775;28;20474;-69
2022/10/20 08:07:59;;;;;;;1999.90;999.90;;;8.70;99.90;;;;;;5031718;28;20463;-69
2022/10/20 08:10:26;;;;;;;1999.90;999.90;;;8.80;99.90;;;;;;5024427;28;20451;-69
2022/10/20 08:12:54;;;;;;;1999.90;999.90;;;8.80;99.90;;;;;;5032521;28;20475;-69
2022/10/20 08:15:21;;;;;;;1999.90;999.90;;;8.90;99.90;;;;;;5032350;28;20439;-68
2022/10/20 08:17:47;;;;;;;1999.90;999.90;;;8.90;99.90;;;;;;5031037;28;20483;-69
2022/10/20 08:20:14;;;;;;;1999.90;999.90;;;9.00;99.90;;;;;;5032003;28;20492;-68
2022/10/20 08:22:41;;;;;;;1999.90;999.90;;;9.10;99.90;;;;;;5032240;28;20469;-69
2022/10/20 08:25:10;;;;;;;1999.90;999.90;;;9.30;99.90;;;;;;5031877;28;20982;-69
2022/10/20 08:27:37;;;;;;;1999.90;999.90;;;9.30;99.90;;;;;;5031653;28;20535;-69
2022/10/20 08:30:06;;;;;;;1999.90;999.90;;;9.40;99.90;;;;;;5031911;28;20443;-69
2022/10/20 08:32:33;;;;;;;1999.90;999.90;;;9.30;99.90;;;;;;5031829;28;20474;-69
2022/10/20 08:34:59;;;;;;;1999.90;999.90;;;9.20;99.90;;;;;;5032081;28;20451;-70
2022/10/20 08:37:29;;;;;;;1999.90;999.90;;;9.30;99.90;;;;;;5031533;28;20482;-70
2022/10/20 08:39:55;;;;;;;1999.90;999.90;;;9.50;99.90;;;;;;5030836;28;20963;-69
2022/10/20 08:42:23;;;;;;;1999.90;999.90;;;9.60;99.90;;;;;;5031259;28;20475;-69
2022/10/20 08:44:50;;;;;;;1999.90;999.90;;;9.90;99.90;;;;;;5030776;28;20478;-69
2022/10/20 08:47:25;;;;;;;1999.90;999.90;;;10.00;99.90;;;;;;5031855;28;20451;-69
2022/10/20 08:49:52;;;;;;;1999.90;999.90;;;10.30;99.90;;;;;;5031688;28;20824;-69
2022/10/20 08:52:22;;;;;;;1999.90;999.90;;;10.40;99.90;;;;;;5030744;28;20483;-69
2022/10/20 08:54:53;;;;;;;1999.90;999.90;;;10.50;99.90;;;;;;5030864;28;20451;-70
2022/10/20 08:57:23;;;;;;;1999.90;999.90;;;10.60;99.90;;;;;;5027432;28;20641;-70
2022/10/20 08:59:52;;;;;;;1999.90;999.90;;;10.60;99.90;;;;;;5022867;28;20451;-67
2022/10/20 09:02:21;;;;;;;1999.90;999.90;;;10.60;99.90;;;;;;5042576;28;20517;-69
2022/10/20 09:04:51;;;;;;;1999.90;999.90;;;10.70;99.90;;;;;;5028236;28;20467;-69
2022/10/20 09:07:24;;;;;;;1999.90;999.90;;;10.70;99.90;;;;;;5033261;28;20810;-69
2022/10/20 09:09:52;;;;;;;1999.90;999.90;;;10.70;99.90;;;;;;5051407;28;20457;-71
2022/10/20 09:12:21;;;;;;;1999.90;999.90;;;10.70;99.90;;;;;;5051653;28;20466;-70
2022/10/20 09:14:48;;;;;;;1999.90;999.90;;;10.90;99.90;;;;;;5033055;28;20472;-70
2022/10/20 09:17:17;;;;;;;1999.90;999.90;;;11.00;99.90;;;;;;5027561;28;20501;-70
2022/10/20 09:19:49;;;;;;;1999.90;999.90;;;11.10;99.90;;;;;;5031408;28;20454;-70
2022/10/20 09:22:16;;;;;;;1999.90;999.90;;;11.10;99.90;;;;;;5029661;28;20522;-70
2022/10/20 09:24:44;;;;;;;1999.90;999.90;;;11.20;99.90;;;;;;5030911;28;20954;-70
2022/10/20 09:27:23;;;;;;;1999.90;999.90;;;11.30;99.90;;;;;;5031604;28;20547;-69
2022/10/20 09:29:50;;;;;;;1999.90;999.90;;;11.30;99.90;;;;;;5031688;28;20443;-69
2022/10/20 09:32:20;;;;;;;1999.90;999.90;;;11.40;99.90;;;;;;5030679;28;20490;-70
2022/10/20 09:34:48;;;;;;;1999.90;999.90;;;11.40;99.90;;;;;;5030178;28;20466;-71
2022/10/20 09:37:18;;;;;;;1999.90;999.90;;;11.60;99.90;;;;;;5031201;28;21014;-70
2022/10/20 09:39:51;;;;;;;1999.90;999.90;;;11.70;99.90;;;;;;5031392;28;20450;-71
2022/10/20 09:42:22;;;;;;;1999.90;999.90;;;11.90;99.90;;;;;;5030986;28;20483;-71
2022/10/20 09:44:52;;;;;;;1999.90;999.90;;;12.00;99.90;;;;;;5029144;28;21043;-71
2022/10/20 09:47:21;;;;;;;1999.90;999.90;;;12.00;99.90;;;;;;5031173;28;20465;-70
2022/10/20 09:49:53;;;;;;;1999.90;999.90;;;11.90;99.90;;;;;;5031322;28;20460;-71
2022/10/20 09:52:26;;;;;;;1999.90;999.90;;;11.80;99.90;;;;;;5031012;28;20571;-71
2022/10/20 09:54:59;;;;;;;1999.90;999.90;;;11.90;99.90;;;;;;5030750;28;20550;-71
2022/10/20 09:57:26;;;;;;;1999.90;999.90;;;11.80;99.90;;;;;;5030140;28;20544;-70
2022/10/20 09:59:55;;;;;;;1999.90;999.90;;;11.80;99.90;;;;;;5031169;28;20451;-71
2022/10/20 10:02:31;;;;;;;1999.90;999.90;;;11.90;99.90;;;;;;5026381;28;20489;-70
2022/10/20 10:08:00;;;;;;;1999.90;999.90;;;11.90;99.90;;;;;;5103755;27;20300;-70
2022/10/20 10:10:29;;;;;;;1999.90;999.90;;;12.10;99.90;;;;;;5079741;28;20448;-68
2022/10/20 10:12:59;;;;;;;1999.90;999.90;;;12.30;99.90;;;;;;5063933;28;20481;-68
2022/10/20 10:15:29;;;;;;;1999.90;999.90;;;12.40;99.90;;;;;;5060455;28;20480;-68
2022/10/20 10:17:57;;;;;;;1999.90;999.90;;;12.60;99.90;;;;;;5068666;28;20963;-69
2022/10/20 10:20:34;;;;;;;1999.90;999.90;;;12.70;99.90;;;;;;5067539;28;20461;-68
2022/10/20 10:23:19;;;;;;;1999.90;999.90;;;13.00;99.90;;;;;;5059456;28;20470;-68
2022/10/20 10:25:46;;;;;;;1999.90;999.90;;;13.10;99.90;;;;;;5047993;28;20946;-68
2022/10/20 10:28:28;;;;;;;1999.90;999.90;;;13.20;99.90;;;;;;5048465;28;20454;-68
2022/10/20 10:31:21;;;;;;;1999.90;999.90;;;13.20;99.90;;;;;;5048055;28;20857;-68
2022/10/20 10:33:53;;;;;;;1999.90;999.90;;;13.10;99.90;;;;;;5062574;28;20465;-68
2022/10/20 10:36:38;;;;;;;1999.90;999.90;;;13.10;99.90;;;;;;5057059;28;20450;-68
2022/10/20 10:39:12;;;;;;;1999.90;999.90;;;13.30;99.90;;;;;;5048775;28;20450;-67
2022/10/20 10:41:59;;;;;;;1999.90;999.90;;;13.30;99.90;;;;;;5104677;22;20557;-73
2022/10/20 10:44:39;;;;;;;1999.90;999.90;;;13.20;99.90;;;;;;5053112;28;20462;-71
2022/10/20 10:47:22;;;;;;;1999.90;999.90;;;13.30;99.90;;;;;;5049595;28;20858;-73
2022/10/20 10:49:57;;;;;;;1999.90;999.90;;;13.20;99.90;;;;;;5049416;28;20442;-71
2022/10/20 10:52:38;;;;;;;1999.90;999.90;;;13.30;99.90;;;;;;5052737;28;20546;-69
2022/10/20 10:55:16;;;;;;;1999.90;999.90;;;13.40;99.90;;;;;;5068735;28;20449;-70
2022/10/20 10:57:54;;;;;;;1999.90;999.90;;;13.40;99.90;;;;;;5069678;28;20502;-70
2022/10/20 11:00:35;;;;;;;1999.90;999.90;;;13.40;99.90;;;;;;5069764;28;20445;-68
2022/10/20 11:03:12;;;;;;;1999.90;999.90;;;13.40;99.90;;;;;;5068192;28;20477;-70
2022/10/20 11:06:09;;;;;;;1999.90;999.90;;;13.50;99.90;;;;;;5068328;28;20505;-69
2022/10/20 11:09:01;;;;;;;1999.90;999.90;;;13.70;99.90;;;;;;5062044;28;20982;-72
2022/10/20 11:11:41;;;;;;;1999.90;999.90;;;13.90;99.90;;;;;;5068829;28;20434;-72
2022/10/20 11:14:28;;;;;;;1999.90;999.90;;;14.10;99.90;;;;;;5067823;28;20562;-72
2022/10/20 11:17:15;;;;;;;1999.90;999.90;;;14.20;99.90;;;;;;5067838;28;20452;-71
2022/10/20 11:19:57;;;;;;;1999.90;999.90;;;14.50;99.90;;;;;;5034598;28;20443;-71
2022/10/20 11:22:33;;;;;;;1999.90;999.90;;;14.70;99.90;;;;;;5049620;28;20978;-69
2022/10/20 11:25:07;;;;;;;1999.90;999.90;;;14.90;99.90;;;;;;5052061;28;20458;-70
2022/10/20 11:27:38;;;;;;;1999.90;999.90;;;14.90;99.90;;;;;;5049644;28;20511;-70
2022/10/20 11:30:17;;;;;;;1999.90;999.90;;;14.90;99.90;;;;;;5051866;28;20461;-72
2022/10/20 11:32:52;;;;;;;1999.90;999.90;;;15.10;99.90;;;;;;5047678;28;20494;-72
2022/10/20 11:35:28;;;;;;;1999.90;999.90;;;15.20;99.90;;;;;;5050518;28;21007;-71
2022/10/20 11:38:12;;;;;;;1999.90;999.90;;;15.30;99.90;;;;;;5048170;28;20512;-70
2022/10/20 11:40:41;;;;;;;1999.90;999.90;;;15.30;99.90;;;;;;5048738;28;20466;-72
2022/10/20 11:43:17;;;;;;;1999.90;999.90;;;15.20;99.90;;;;;;5044378;28;21041;-71
2022/10/20 11:45:50;;;;;;;1999.90;999.90;;;15.40;99.90;;;;;;5045572;28;20524;-70
2022/10/20 11:48:22;;;;;;;1999.90;999.90;;;14.80;99.90;;;;;;5051600;28;20458;-71
2022/10/20 11:51:01;;;;;;;1999.90;999.90;;;14.60;99.90;;;;;;5052516;28;20474;-67
2022/10/20 11:53:39;;;;;;;1999.90;999.90;;;14.30;99.90;;;;;;5049072;28;20477;-70
2022/10/20 11:56:35;;;;;;;1999.90;999.90;;;14.10;99.90;;;;;;5048344;28;20476;-67
2022/10/20 11:59:34;;;;;;;1999.90;999.90;;;14.10;99.90;;;;;;5034970;28;20470;-68
2022/10/20 12:02:37;;;;;;;1999.90;999.90;;;14.20;99.90;;;;;;5011017;28;20987;-68
2022/10/20 12:05:29;;;;;;;1999.90;999.90;;;14.10;99.90;;;;;;5046871;28;20465;-71
2022/10/20 12:08:20;;;;;;;1999.90;999.90;;;14.50;99.90;;;;;;5048853;28;20466;-71
2022/10/20 12:10:54;;;;;;;1999.90;999.90;;;14.70;99.90;;;;;;5050569;28;20470;-69
2022/10/20 12:13:32;;;;;;;1999.90;999.90;;;15.10;99.90;;;;;;5048264;28;20473;-69
2022/10/20 12:16:00;;;;;;;1999.90;999.90;;;15.20;99.90;;;;;;5048131;28;20692;-72
2022/10/20 12:18:28;;;;;;;1999.90;999.90;;;15.10;99.90;;;;;;5047840;28;20461;-69
2022/10/20 12:21:00;;;;;;;1999.90;999.90;;;14.90;99.90;;;;;;5047405;28;20477;-71
2022/10/20 12:24:03;;;;;;;1999.90;999.90;;;14.70;99.90;;;;;;5043973;28;20462;-74
2022/10/20 12:26:39;;;;;;;1999.90;999.90;;;14.60;99.90;;;;;;5050767;28;20485;-70